Time;durP1;ratioP1;P1;durP2;ratioP2;P2;SDS_P1;SDS_P2;PMS_P1;PMS_P2;Temp;Humidity;BMP_temperature;BMP_pressure;BME280_temperature;BME280_humidity;BME280_pressure;Samples;Min_cycle;Max_cycle;Signal;HPM_P1;HPM_P2
2022/11/16 00:01:24;;;;;;;47.70;31.20;;;;;;;1.31;100.00;96882.61;107751;1270;59775;-73
2022/11/16 00:03:55;;;;;;;45.60;30.50;;;;;;;1.32;100.00;96879.29;107679;1268;59776;-73
2022/11/16 00:06:26;;;;;;;48.90;31.80;;;;;;;1.32;100.00;96878.77;107665;1264;71429;-73
2022/11/16 00:11:53;;;;;;;41.40;29.60;;;;;;;1.34;100.00;96867.55;107696;1265;69237;-73
2022/11/16 00:14:26;;;;;;;41.50;27.50;;;;;;;1.35;100.00;96865.77;107610;1260;59674;-73
2022/11/16 00:16:55;;;;;;;38.10;28.10;;;;;;;1.37;100.00;96860.01;107737;1268;59718;-73
2022/11/16 00:19:26;;;;;;;42.90;29.50;;;;;;;1.39;100.00;96865.45;107693;1268;71194;-73
2022/11/16 00:21:55;;;;;;;43.50;30.60;;;;;;;1.38;100.00;96871.48;107560;1266;69280;-73
2022/11/16 00:24:25;;;;;;;34.40;23.90;;;;;;;1.39;100.00;96877.11;107882;1266;69226;-73
2022/11/16 00:26:55;;;;;;;44.80;31.00;;;;;;;1.40;100.00;96876.05;107791;1268;59759;-73
2022/11/16 00:29:25;;;;;;;41.70;30.20;;;;;;;1.41;100.00;96875.12;107832;1269;59682;-72
2022/11/16 00:31:55;;;;;;;46.60;31.20;;;;;;;1.40;100.00;96859.37;107756;1268;71376;-73
2022/11/16 00:34:26;;;;;;;45.80;30.60;;;;;;;1.41;100.00;96845.23;107803;1270;68673;-73
2022/11/16 00:36:56;;;;;;;49.80;34.90;;;;;;;1.42;100.00;96849.83;107621;1269;69508;-72
2022/11/16 00:39:27;;;;;;;42.20;29.10;;;;;;;1.41;100.00;96858.97;107645;1260;59779;-73
2022/11/16 00:41:57;;;;;;;42.90;29.30;;;;;;;1.41;100.00;96853.32;107930;1268;59728;-73
2022/11/16 00:44:27;;;;;;;43.40;29.40;;;;;;;1.42;100.00;96846.38;107729;1259;71406;-72
2022/11/16 00:46:58;;;;;;;35.90;24.60;;;;;;;1.42;100.00;96851.23;107712;1266;68429;-72
2022/11/16 00:49:27;;;;;;;33.60;23.00;;;;;;;1.40;100.00;96849.77;107772;1268;69512;-73
2022/11/16 00:51:57;;;;;;;;;;;;;;;1.38;100.00;96847.11;107650;1266;59834;-73
2022/11/16 00:54:27;;;;;;;40.90;28.20;;;;;;;1.32;100.00;96842.90;107891;1266;59713;-73
2022/11/16 00:56:57;;;;;;;39.30;27.90;;;;;;;1.27;100.00;96842.79;107819;1265;71557;-73
2022/11/16 00:59:27;;;;;;;50.60;32.20;;;;;;;1.22;100.00;96852.81;107926;1269;69118;-73
2022/11/16 01:01:59;;;;;;;45.70;31.40;;;;;;;1.13;100.00;96853.70;107763;1268;69076;-73
2022/11/16 01:04:31;;;;;;;43.40;29.70;;;;;;;1.08;100.00;96846.39;107780;1266;59729;-73
2022/11/16 01:07:01;;;;;;;45.10;30.60;;;;;;;1.05;100.00;96827.65;107801;1269;59780;-73
2022/11/16 01:09:33;;;;;;;44.00;30.00;;;;;;;1.03;100.00;96821.52;107884;1266;71497;-73
2022/11/16 01:12:08;;;;;;;48.50;32.20;;;;;;;1.01;100.00;96829.67;107656;1265;69646;-73
2022/11/16 01:14:42;;;;;;;44.30;28.60;;;;;;;1.01;100.00;96831.23;107692;1265;69241;-73
2022/11/16 01:17:13;;;;;;;35.60;23.30;;;;;;;1.00;100.00;96813.75;107647;1265;59812;-73
2022/11/16 01:19:43;;;;;;;43.40;28.60;;;;;;;1.01;100.00;96808.22;107758;1267;59732;-73
2022/11/16 01:22:14;;;;;;;45.60;30.10;;;;;;;1.02;100.00;96810.59;107834;1266;71277;-73
2022/11/16 01:24:45;;;;;;;40.60;27.70;;;;;;;1.03;100.00;96811.07;107564;1265;70225;-73
2022/11/16 01:27:16;;;;;;;42.10;29.10;;;;;;;1.05;100.00;96816.48;107580;1269;67485;-73
2022/11/16 01:29:46;;;;;;;41.90;28.60;;;;;;;1.07;100.00;96811.77;107698;1266;59689;-73
2022/11/16 01:32:18;;;;;;;39.90;25.80;;;;;;;1.09;100.00;96811.54;107612;1266;59804;-73
2022/11/16 01:34:48;;;;;;;40.20;28.70;;;;;;;1.10;100.00;96808.20;107726;1263;71417;-73
2022/11/16 01:37:28;;;;;;;45.10;29.70;;;;;;;1.12;100.00;96802.43;107750;1265;68480;-73
2022/11/16 01:39:58;;;;;;;;;;;;;;;1.15;100.00;96797.34;107616;1266;69258;-73
2022/11/16 01:42:30;;;;;;;48.80;30.70;;;;;;;1.18;100.00;96798.55;107565;1269;59798;-72
2022/11/16 01:45:09;;;;;;;41.60;28.50;;;;;;;1.18;100.00;96797.00;107728;1268;59748;-72
2022/11/16 01:47:39;;;;;;;34.60;23.50;;;;;;;1.17;100.00;96792.42;107599;1269;70644;-72
2022/11/16 01:50:14;;;;;;;35.60;24.20;;;;;;;1.21;100.00;96794.30;107662;1266;68584;-73
2022/11/16 01:52:56;;;;;;;37.60;26.00;;;;;;;1.24;100.00;96791.95;107640;1269;67877;-73
2022/11/16 01:55:31;;;;;;;43.30;27.40;;;;;;;1.26;100.00;96790.45;107686;1266;59729;-73
2022/11/16 01:58:23;;;;;;;45.70;29.30;;;;;;;1.26;100.00;96793.55;107679;1267;59782;-73
2022/11/16 02:01:02;;;;;;;39.10;27.60;;;;;;;1.22;100.00;96785.83;107654;1267;71726;-73
2022/11/16 02:03:43;;;;;;;37.70;27.10;;;;;;;1.20;100.00;96790.41;107784;1270;68217;-73
2022/11/16 02:06:25;;;;;;;42.10;29.10;;;;;;;1.18;100.00;96792.38;107693;1265;69773;-73
2022/11/16 02:12:49;;;;;;;54.30;33.20;;;;;;;1.11;100.00;96776.58;107642;1265;59747;-73
2022/11/16 02:15:22;;;;;;;36.80;24.50;;;;;;;1.05;100.00;96776.18;107689;1266;71834;-73
2022/11/16 02:18:24;;;;;;;40.50;26.80;;;;;;;1.00;100.00;96761.42;107653;1266;69510;-72
2022/11/16 02:21:28;;;;;;;37.10;25.50;;;;;;;0.97;100.00;96761.73;107648;1269;69322;-73
2022/11/16 02:24:08;;;;;;;52.30;32.10;;;;;;;0.93;100.00;96750.75;107651;1269;59769;-73
2022/11/16 02:26:40;;;;;;;40.90;27.90;;;;;;;0.87;100.00;96747.41;107734;1269;59693;-73
2022/11/16 02:29:20;;;;;;;55.20;35.00;;;;;;;0.82;100.00;96739.08;107676;1263;70651;-73
2022/11/16 02:32:04;;;;;;;45.60;28.80;;;;;;;0.76;100.00;96728.88;107619;1269;69188;-73
2022/11/16 02:35:07;;;;;;;45.30;30.00;;;;;;;0.71;100.00;96722.09;107745;1269;68563;-73
2022/11/16 02:37:43;;;;;;;47.60;30.10;;;;;;;0.65;100.00;96724.23;107494;1269;59752;-73
2022/11/16 02:40:16;;;;;;;50.70;32.10;;;;;;;0.62;100.00;96719.73;107608;1266;59724;-73
2022/11/16 02:42:53;;;;;;;56.70;34.00;;;;;;;0.60;100.00;96714.70;107672;1263;70551;-73
2022/11/16 02:45:27;;;;;;;46.40;30.50;;;;;;;0.56;100.00;96711.27;107610;1260;69116;-73
2022/11/16 02:48:04;;;;;;;57.30;34.30;;;;;;;0.54;100.00;96702.98;107728;1269;69104;-73
2022/11/16 02:50:37;;;;;;;46.20;29.90;;;;;;;0.51;100.00;96705.46;107766;1265;59713;-73
2022/11/16 02:53:06;;;;;;;40.40;27.60;;;;;;;0.50;100.00;96708.59;107712;1265;59720;-73
2022/11/16 02:55:37;;;;;;;46.00;31.30;;;;;;;0.48;100.00;96709.35;107749;1266;71755;-73
2022/11/16 02:58:10;;;;;;;47.60;28.70;;;;;;;0.47;100.00;96705.63;107642;1265;68508;-73
2022/11/16 03:00:47;;;;;;;62.40;33.80;;;;;;;0.45;100.00;96698.89;107594;1266;68570;-73
2022/11/16 03:03:30;;;;;;;51.00;30.80;;;;;;;0.43;100.00;96702.91;107445;1268;59760;-73
2022/11/16 03:06:32;;;;;;;41.90;26.90;;;;;;;0.42;100.00;96706.40;107748;1266;59711;-73
2022/11/16 03:09:15;;;;;;;50.20;31.50;;;;;;;0.43;100.00;96696.94;107579;1269;71288;-73
2022/11/16 03:12:01;;;;;;;55.00;30.30;;;;;;;0.41;100.00;96701.98;107647;1269;68497;-73
2022/11/16 03:15:08;;;;;;;45.70;27.40;;;;;;;0.34;100.00;96718.89;107667;1269;69324;-73
2022/11/16 03:17:43;;;;;;;34.60;23.50;;;;;;;0.34;100.00;96719.75;107639;1262;59749;-73
2022/11/16 03:20:21;;;;;;;45.30;27.80;;;;;;;0.35;100.00;96708.58;107660;1267;59750;-73
2022/11/16 03:23:04;;;;;;;36.70;24.40;;;;;;;0.36;100.00;96700.46;107680;1265;71679;-73
2022/11/16 03:26:04;;;;;;;61.60;30.80;;;;;;;0.39;100.00;96703.41;107615;1269;69175;-74
2022/11/16 03:28:51;;;;;;;49.60;27.70;;;;;;;0.41;100.00;96706.07;107565;1266;68524;-73
2022/11/16 03:31:28;;;;;;;73.00;36.40;;;;;;;0.44;100.00;96695.86;107689;1266;60198;-73
2022/11/16 03:34:03;;;;;;;52.60;32.00;;;;;;;0.46;100.00;96692.64;107640;1266;59723;-73
2022/11/16 03:36:37;;;;;;;72.90;34.40;;;;;;;0.48;100.00;96690.68;107515;1269;69598;-73
2022/11/16 03:39:16;;;;;;;68.80;32.90;;;;;;;0.49;100.00;96684.97;107408;1268;69079;-73
2022/11/16 03:41:48;;;;;;;69.40;31.50;;;;;;;0.48;100.00;96675.23;107700;1269;69467;-73
2022/11/16 03:44:20;;;;;;;111.30;37.90;;;;;;;0.46;100.00;96668.81;107631;1265;59817;-74
2022/11/16 03:46:49;;;;;;;77.20;33.80;;;;;;;0.44;100.00;96666.19;107799;1269;59787;-73
2022/11/16 03:49:22;;;;;;;91.50;34.10;;;;;;;0.43;100.00;96666.56;107637;1265;70703;-74
2022/11/16 03:51:53;;;;;;;141.50;40.00;;;;;;;0.41;100.00;96671.95;107571;1269;68409;-74
2022/11/16 03:54:23;;;;;;;;;;;;;;;0.40;100.00;96672.85;107725;1268;69414;-73
2022/11/16 03:56:53;;;;;;;62.60;25.70;;;;;;;0.40;100.00;96664.14;107816;1269;59751;-74
2022/11/16 03:59:22;;;;;;;63.70;30.80;;;;;;;0.38;100.00;96660.27;107690;1265;59722;-73
2022/11/16 04:01:52;;;;;;;56.60;31.60;;;;;;;0.37;100.00;96657.59;107677;1265;71604;-74
2022/11/16 04:24:22;;;;;;;74.10;32.00;;;;;;;0.44;100.00;96654.02;107639;1265;59694;-73
2022/11/16 04:29:47;;;;;;;40.70;26.50;;;;;;;0.40;100.00;96639.61;107670;1269;70719;-71
2022/11/16 04:37:55;;;;;;;64.00;31.10;;;;;;;0.43;100.00;96609.14;107732;1269;60185;-72
2022/11/16 04:40:28;;;;;;;47.90;29.70;;;;;;;0.44;100.00;96610.63;107804;1266;59722;-72
2022/11/16 04:43:00;;;;;;;69.10;33.00;;;;;;;0.46;100.00;96608.48;107697;1268;70804;-72
2022/11/16 04:48:25;;;;;;;86.90;39.80;;;;;;;0.51;100.00;96593.16;107672;1268;70047;-72
2022/11/16 04:50:54;;;;;;;57.80;33.70;;;;;;;0.51;100.00;96580.83;107746;1267;59716;-72
2022/11/16 04:53:26;;;;;;;47.10;27.80;;;;;;;0.52;100.00;96574.30;107738;1266;59760;-71
2022/11/16 04:56:03;;;;;;;44.30;28.30;;;;;;;0.51;100.00;96578.60;107790;1267;71992;-72
2022/11/16 04:58:32;;;;;;;45.60;27.30;;;;;;;0.49;100.00;96586.58;107686;1270;68741;-72
2022/11/16 05:01:03;;;;;;;50.50;32.30;;;;;;;0.48;100.00;96593.30;107743;1268;69310;-73
2022/11/16 05:03:34;;;;;;;70.00;34.80;;;;;;;0.44;100.00;96599.29;107648;1265;59767;-72
2022/11/16 05:06:03;;;;;;;81.40;39.80;;;;;;;0.42;100.00;96605.27;107702;1265;59782;-73
2022/11/16 05:08:33;;;;;;;50.70;31.20;;;;;;;0.40;100.00;96609.45;107670;1263;72005;-72
2022/11/16 05:11:03;;;;;;;51.80;29.90;;;;;;;0.39;100.00;96601.44;107681;1266;68391;-72
2022/11/16 05:13:32;;;;;;;61.50;35.40;;;;;;;0.38;100.00;96599.93;107683;1265;68951;-73
2022/11/16 05:16:02;;;;;;;53.10;31.90;;;;;;;0.39;100.00;96592.70;107708;1266;59679;-72
2022/11/16 05:18:32;;;;;;;50.50;31.90;;;;;;;0.39;100.00;96589.79;107689;1269;59681;-72
2022/11/16 05:21:03;;;;;;;55.30;33.20;;;;;;;0.38;100.00;96584.84;107657;1269;70489;-73
2022/11/16 05:26:29;;;;;;;44.30;29.30;;;;;;;0.37;100.00;96575.46;107667;1268;69111;-72
2022/11/16 05:28:58;;;;;;;48.40;29.80;;;;;;;0.37;100.00;96575.13;107687;1267;59765;-72
2022/11/16 05:31:27;;;;;;;47.20;30.40;;;;;;;0.36;100.00;96572.23;107663;1269;59712;-74
2022/11/16 05:33:55;;;;;;;37.20;24.50;;;;;;;0.38;100.00;96570.81;107760;1265;70556;-73
2022/11/16 05:36:25;;;;;;;42.20;27.10;;;;;;;0.39;100.00;96567.49;107808;1269;69285;-72
2022/11/16 05:38:54;;;;;;;67.80;37.10;;;;;;;0.39;100.00;96565.95;107690;1269;68453;-73
2022/11/16 05:41:25;;;;;;;49.80;32.00;;;;;;;0.39;100.00;96570.60;107633;1269;59697;-73
2022/11/16 05:43:54;;;;;;;58.30;36.10;;;;;;;0.41;100.00;96577.84;107676;1269;59713;-73
2022/11/16 05:46:24;;;;;;;62.30;36.90;;;;;;;0.44;100.00;96574.30;107774;1268;71370;-72
2022/11/16 05:48:55;;;;;;;68.30;40.00;;;;;;;0.50;100.00;96567.70;107658;1269;69288;-72
2022/11/16 05:51:25;;;;;;;70.80;40.60;;;;;;;0.54;100.00;96565.29;107714;1267;68363;-72
2022/11/16 05:53:54;;;;;;;;;;;;;;;0.56;100.00;96567.77;107693;1265;59728;-72
2022/11/16 05:56:23;;;;;;;53.60;28.40;;;;;;;0.58;100.00;96575.52;107629;1265;59771;-72
2022/11/16 05:58:53;;;;;;;54.30;30.80;;;;;;;0.55;100.00;96582.19;107764;1267;71297;-72
2022/11/16 06:01:22;;;;;;;74.70;40.10;;;;;;;0.61;100.00;96576.41;107835;1266;68489;-72
2022/11/16 06:03:52;;;;;;;67.90;38.00;;;;;;;0.67;100.00;96565.36;107665;1265;69306;-72
2022/11/16 06:06:20;;;;;;;54.30;34.30;;;;;;;0.76;100.00;96565.09;107628;1269;59771;-72
2022/11/16 06:08:49;;;;;;;60.90;37.50;;;;;;;0.88;100.00;96572.06;107662;1263;59690;-72
2022/11/16 06:11:23;;;;;;;64.60;37.60;;;;;;;1.01;100.00;96564.41;107738;1267;70887;-72
2022/11/16 06:13:52;;;;;;;70.20;42.30;;;;;;;1.16;100.00;96554.08;107642;1269;69953;-75
2022/11/16 06:16:21;;;;;;;60.60;35.90;;;;;;;1.31;100.00;96550.94;107631;1268;69085;-72
2022/11/16 06:18:50;;;;;;;60.10;36.70;;;;;;;1.43;100.00;96552.23;107653;1268;59759;-71
2022/11/16 06:21:19;;;;;;;56.40;35.60;;;;;;;1.58;100.00;96550.97;107691;1267;59702;-72
2022/11/16 06:23:49;;;;;;;50.10;33.40;;;;;;;1.65;100.00;96548.90;107636;1267;70660;-73
2022/11/16 06:26:18;;;;;;;45.70;31.70;;;;;;;1.70;100.00;96553.77;107665;1263;69172;-72
2022/11/16 06:28:48;;;;;;;46.90;32.30;;;;;;;1.75;100.00;96560.89;107759;1263;68477;-72
2022/11/16 06:31:17;;;;;;;40.20;29.40;;;;;;;1.76;100.00;96562.39;107686;1265;59719;-72
2022/11/16 06:33:46;;;;;;;52.50;35.30;;;;;;;1.81;100.00;96565.08;107736;1267;59767;-72
2022/11/16 06:36:25;;;;;;;59.10;35.00;;;;;;;1.80;100.00;96563.38;107630;1267;71434;-73
2022/11/16 06:38:54;;;;;;;57.70;38.60;;;;;;;1.76;100.00;96573.60;107643;1263;69794;-73
2022/11/16 06:41:23;;;;;;;56.60;37.10;;;;;;;1.65;100.00;96580.98;107720;1263;69074;-73
2022/11/16 06:43:53;;;;;;;64.30;39.60;;;;;;;1.50;100.00;96594.45;107796;1265;59807;-73
2022/11/16 06:46:25;;;;;;;51.20;34.80;;;;;;;1.45;100.00;96596.23;107750;1267;60061;-73
2022/11/16 06:48:55;;;;;;;60.30;34.10;;;;;;;1.45;100.00;96601.73;107693;1267;72032;-74
2022/11/16 06:51:24;;;;;;;47.90;31.70;;;;;;;1.45;100.00;96604.82;108001;1267;68560;-74
2022/11/16 06:53:53;;;;;;;50.70;33.00;;;;;;;1.43;100.00;96609.77;107778;1263;68274;-72
2022/11/16 06:56:22;;;;;;;44.00;29.70;;;;;;;1.43;100.00;96607.32;107847;1265;59782;-74
2022/11/16 06:58:56;;;;;;;75.90;44.40;;;;;;;1.45;100.00;96598.29;107914;1267;59658;-74
2022/11/16 07:01:26;;;;;;;54.60;33.90;;;;;;;1.47;100.00;96590.14;107753;1265;70909;-74
2022/11/16 07:03:59;;;;;;;50.60;32.60;;;;;;;1.46;100.00;96583.86;107730;1266;69176;-74
2022/11/16 07:06:29;;;;;;;74.40;45.70;;;;;;;1.43;100.00;96578.99;107799;1261;69750;-74
2022/11/16 07:08:58;;;;;;;47.50;30.60;;;;;;;1.43;100.00;96572.14;107829;1269;59699;-74
2022/11/16 07:11:29;;;;;;;39.40;28.10;;;;;;;1.44;100.00;96558.20;107719;1263;59736;-74
2022/11/16 07:13:58;;;;;;;52.60;34.20;;;;;;;1.46;100.00;96555.88;107410;1269;491912;-74
2022/11/16 07:16:28;;;;;;;47.30;32.20;;;;;;;1.46;100.00;96556.35;107803;1268;69109;-74
2022/11/16 07:19:00;;;;;;;40.90;29.00;;;;;;;1.49;100.00;96542.29;107894;1268;68743;-73
2022/11/16 07:21:30;;;;;;;;;;;;;;;1.55;100.00;96521.92;107663;1268;60118;-73
2022/11/16 07:24:00;;;;;;;55.20;34.60;;;;;;;1.57;100.00;96506.18;107688;1269;59778;-73
2022/11/16 07:26:31;;;;;;;50.20;32.70;;;;;;;1.60;100.00;96504.63;107509;1266;70826;-73
2022/11/16 07:29:06;;;;;;;66.70;42.00;;;;;;;1.65;100.00;96514.38;107583;1269;68756;-73
2022/11/16 07:31:35;;;;;;;49.40;34.90;;;;;;;1.68;100.00;96523.14;107698;1269;68763;-73
2022/11/16 07:34:22;;;;;;;58.80;40.50;;;;;;;1.72;100.00;96517.61;107869;1263;59722;-73
2022/11/16 07:37:04;;;;;;;55.90;38.80;;;;;;;1.74;100.00;96510.45;107745;1265;59761;-73
2022/11/16 07:39:33;;;;;;;49.80;34.50;;;;;;;1.80;100.00;96500.20;107907;1269;71101;-73
2022/11/16 07:42:10;;;;;;;42.80;29.10;;;;;;;1.83;100.00;96493.66;107604;1266;69223;-73
2022/11/16 07:44:52;;;;;;;43.40;31.00;;;;;;;1.84;100.00;96495.33;107588;1272;69698;-73
2022/11/16 07:47:21;;;;;;;52.40;36.80;;;;;;;1.88;100.00;96495.79;107627;1269;60061;-73
2022/11/16 07:49:50;;;;;;;45.50;32.40;;;;;;;1.96;100.00;96497.11;107743;1269;59694;-74
2022/11/16 07:52:21;;;;;;;43.70;32.00;;;;;;;2.03;100.00;96506.02;107615;1270;71869;-72
2022/11/16 07:55:04;;;;;;;52.70;34.70;;;;;;;2.10;100.00;96507.73;107654;1267;67703;-73
2022/11/16 07:57:34;;;;;;;59.60;39.20;;;;;;;2.15;100.00;96510.04;107617;1269;69903;-72
2022/11/16 08:00:07;;;;;;;53.80;33.80;;;;;;;2.20;100.00;96510.11;107627;1270;59705;-73
2022/11/16 08:02:44;;;;;;;53.20;35.70;;;;;;;2.28;100.00;96511.19;107649;1269;59732;-72
2022/11/16 08:05:17;;;;;;;44.50;30.80;;;;;;;2.38;100.00;96513.23;107655;1266;72130;-72
2022/11/16 08:07:48;;;;;;;46.80;34.30;;;;;;;2.51;100.00;96513.20;107629;1269;68641;-72
2022/11/16 08:10:20;;;;;;;45.60;32.80;;;;;;;2.63;100.00;96504.48;107488;1270;68999;-73
2022/11/16 08:12:49;;;;;;;56.10;39.60;;;;;;;2.77;100.00;96501.46;107752;1267;59755;-73
2022/11/16 08:15:19;;;;;;;41.80;31.80;;;;;;;2.90;100.00;96500.06;107687;1268;59760;-74
2022/11/16 08:17:47;;;;;;;49.30;33.60;;;;;;;3.04;100.00;96503.88;107756;1262;71866;-74
2022/11/16 08:20:17;;;;;;;42.90;30.70;;;;;;;3.18;100.00;96499.31;107755;1269;69872;-74
2022/11/16 08:22:48;;;;;;;43.40;29.00;;;;;;;3.33;100.00;96503.77;107661;1269;69076;-74
2022/11/16 08:25:18;;;;;;;28.80;21.00;;;;;;;3.46;100.00;96514.34;107694;1269;59753;-74
2022/11/16 08:27:48;;;;;;;37.20;29.30;;;;;;;3.56;100.00;96518.79;107775;1270;59795;-75
2022/11/16 08:30:18;;;;;;;36.10;26.60;;;;;;;3.60;100.00;96516.99;107697;1266;71929;-74
2022/11/16 08:32:47;;;;;;;33.10;24.20;;;;;;;3.56;100.00;96519.99;107671;1265;69681;-74
2022/11/16 08:35:16;;;;;;;32.40;24.20;;;;;;;3.63;100.00;96514.24;107705;1259;69256;-73
2022/11/16 08:37:45;;;;;;;40.70;29.40;;;;;;;3.69;100.00;96517.16;107692;1269;59782;-75
2022/11/16 08:40:14;;;;;;;35.30;27.70;;;;;;;3.68;100.00;96522.53;107887;1265;59750;-75
2022/11/16 08:42:43;;;;;;;37.80;28.80;;;;;;;3.66;100.00;96526.27;107690;1269;72004;-74
2022/11/16 08:45:12;;;;;;;40.20;30.60;;;;;;;3.64;100.00;96526.59;107799;1269;69009;-75
2022/11/16 08:47:42;;;;;;;39.20;30.80;;;;;;;3.58;100.00;96522.95;107849;1265;69328;-75
2022/11/16 08:50:10;;;;;;;40.30;30.40;;;;;;;3.52;100.00;96515.39;107739;1268;59715;-76
2022/11/16 08:52:39;;;;;;;38.30;29.50;;;;;;;3.51;100.00;96503.57;107637;1269;59792;-74
2022/11/16 08:55:09;;;;;;;40.10;30.00;;;;;;;3.48;100.00;96499.64;107701;1261;71850;-73
2022/11/16 08:57:39;;;;;;;39.80;30.00;;;;;;;3.48;100.00;96499.59;107811;1267;69071;-72
2022/11/16 09:00:11;;;;;;;36.70;27.00;;;;;;;3.52;100.00;96485.95;107721;1269;67770;-72
2022/11/16 09:02:40;;;;;;;;;;;;;;;3.60;100.00;96484.55;107750;1269;59784;-73
2022/11/16 09:05:10;;;;;;;40.30;28.00;;;;;;;3.76;100.00;96484.14;107793;1269;59708;-73
2022/11/16 09:07:42;;;;;;;40.10;29.20;;;;;;;3.93;100.00;96484.70;107714;1269;71217;-73
2022/11/16 09:10:12;;;;;;;33.20;25.20;;;;;;;4.10;100.00;96482.09;107661;1269;69749;-73
2022/11/16 09:12:49;;;;;;;40.20;30.40;;;;;;;4.31;100.00;96472.86;107871;1265;69772;-73
2022/11/16 09:15:19;;;;;;;35.40;27.10;;;;;;;4.54;100.00;96467.11;107659;1265;59760;-74
2022/11/16 09:17:48;;;;;;;;;;;;;;;4.74;100.00;96464.44;107718;1269;59664;-73
2022/11/16 09:20:17;;;;;;;35.80;25.20;;;;;;;4.90;100.00;96463.71;107641;1266;72051;-74
2022/11/16 09:22:46;;;;;;;28.80;21.50;;;;;;;5.02;100.00;96465.00;107621;1266;69552;-74
2022/11/16 09:25:14;;;;;;;26.70;20.80;;;;;;;5.12;100.00;96468.14;107789;1267;69934;-75
2022/11/16 09:27:43;;;;;;;29.30;22.20;;;;;;;5.25;100.00;96473.52;107668;1263;59789;-75
2022/11/16 09:30:12;;;;;;;26.10;19.90;;;;;;;5.40;100.00;96474.44;107634;1269;59726;-74
2022/11/16 09:32:41;;;;;;;26.30;19.60;;;;;;;5.56;100.00;96469.73;107663;1265;71212;-75
2022/11/16 09:35:10;;;;;;;26.40;21.40;;;;;;;5.67;99.74;96467.74;107737;1269;69531;-75
2022/11/16 09:37:38;;;;;;;30.30;24.80;;;;;;;5.75;99.92;96460.98;107706;1268;68444;-74
2022/11/16 09:40:10;;;;;;;27.80;22.90;;;;;;;5.73;98.31;96455.78;107661;1266;59704;-74
2022/11/16 09:43:00;;;;;;;26.70;22.60;;;;;;;5.69;97.11;96448.98;107792;1269;59703;-76
2022/11/16 09:45:32;;;;;;;;;;;;;;;5.78;98.30;96444.73;107732;1269;69672;-74
2022/11/16 09:48:05;;;;;;;32.80;24.40;;;;;;;5.71;98.53;96446.42;107851;1263;68661;-74
2022/11/16 09:50:33;;;;;;;26.30;22.70;;;;;;;5.66;98.32;96442.59;107748;1269;69121;-75
2022/11/16 09:53:16;;;;;;;28.60;22.10;;;;;;;5.62;97.95;96444.74;107788;1270;59798;-74
2022/11/16 09:56:03;;;;;;;47.40;32.30;;;;;;;5.69;98.28;96442.38;107647;1269;59739;-74
2022/11/16 09:58:49;;;;;;;46.60;33.60;;;;;;;5.75;98.21;96444.08;107770;1266;71670;-74
2022/11/16 10:01:40;;;;;;;39.80;30.90;;;;;;;5.69;97.99;96442.88;107905;1269;69714;-74
2022/11/16 10:04:14;;;;;;;34.20;26.10;;;;;;;5.62;97.86;96434.52;107727;1265;69923;-74
2022/11/16 10:06:52;;;;;;;30.60;23.60;;;;;;;5.64;98.39;96429.05;107648;1269;59772;-75
2022/11/16 10:09:21;;;;;;;33.40;25.70;;;;;;;5.66;98.01;96424.30;107629;1265;59695;-74
2022/11/16 10:12:10;;;;;;;30.90;24.60;;;;;;;5.69;97.93;96422.48;107613;1269;70551;-75
2022/11/16 10:15:14;;;;;;;28.70;24.00;;;;;;;5.72;97.30;96413.45;107710;1269;69836;-75
2022/11/16 10:17:58;;;;;;;29.50;21.90;;;;;;;5.82;97.04;96408.45;107589;1269;68703;-75
2022/11/16 10:20:47;;;;;;;27.90;21.50;;;;;;;5.95;96.97;96404.27;107689;1269;59771;-75
2022/11/16 10:23:33;;;;;;;29.50;23.00;;;;;;;6.12;96.65;96400.15;107853;1265;59782;-76
2022/11/16 10:26:21;;;;;;;35.20;24.50;;;;;;;6.25;95.60;96399.09;107614;1267;71379;-75
2022/11/16 10:28:55;;;;;;;31.40;24.10;;;;;;;6.32;95.26;96398.73;107697;1263;69179;-74
2022/11/16 10:31:50;;;;;;;32.20;23.50;;;;;;;6.38;95.31;96404.71;107629;1269;69723;-75
2022/11/16 10:34:24;;;;;;;29.10;22.40;;;;;;;6.33;94.80;96402.45;107726;1268;60124;-75
2022/11/16 10:37:02;;;;;;;30.50;22.40;;;;;;;6.31;96.65;96396.89;108011;1267;59717;-75
2022/11/16 10:39:33;;;;;;;31.70;23.60;;;;;;;6.47;96.29;96398.20;107668;1267;71656;-75
2022/11/16 10:42:09;;;;;;;27.40;21.70;;;;;;;6.49;94.98;96393.84;107688;1269;69667;-75
2022/11/16 10:44:43;;;;;;;28.40;20.90;;;;;;;6.58;94.59;96385.21;107735;1265;68400;-75
2022/11/16 10:47:50;;;;;;;27.00;21.70;;;;;;;6.68;94.73;96376.00;107710;1269;59785;-74
2022/11/16 10:50:36;;;;;;;29.10;21.40;;;;;;;6.79;94.37;96375.73;107802;1270;59684;-75
2022/11/16 10:53:04;;;;;;;25.50;21.40;;;;;;;6.80;93.24;96376.36;107675;1268;71844;-75
2022/11/16 10:55:34;;;;;;;24.00;18.90;;;;;;;6.87;93.04;96380.85;107696;1269;69202;-75
2022/11/16 10:58:05;;;;;;;25.90;20.40;;;;;;;7.04;93.79;96383.73;107638;1269;69484;-76
2022/11/16 11:00:40;;;;;;;24.40;18.10;;;;;;;7.13;92.95;96382.91;107647;1268;59735;-76
2022/11/16 11:03:10;;;;;;;24.30;18.50;;;;;;;7.20;93.80;96378.90;107813;1269;59701;-75
2022/11/16 11:06:09;;;;;;;26.50;21.60;;;;;;;7.25;92.93;96372.86;107635;1265;71210;-75
2022/11/16 11:08:38;;;;;;;30.30;21.30;;;;;;;7.23;92.14;96375.55;107737;1269;71343;-75
2022/11/16 11:14:13;;;;;;;;;;;;;;;7.08;92.14;96370.60;107676;1269;59720;-73
2022/11/16 11:16:41;;;;;;;27.20;22.00;;;;;;;7.00;93.48;96369.86;107653;1265;59662;-73
2022/11/16 11:19:30;;;;;;;30.40;23.60;;;;;;;6.95;93.30;96370.74;107701;1263;71359;-73
2022/11/16 11:22:00;;;;;;;31.60;24.60;;;;;;;6.69;93.73;96366.10;107712;1263;69502;-73
2022/11/16 11:24:28;;;;;;;29.00;21.00;;;;;;;6.66;94.14;96360.45;107662;1269;69872;-73
2022/11/16 11:27:22;;;;;;;31.10;22.50;;;;;;;6.70;95.24;96355.65;107629;1269;59715;-74
2022/11/16 11:29:54;;;;;;;27.60;20.80;;;;;;;6.76;95.56;96348.95;107664;1265;59701;-75
2022/11/16 11:32:30;;;;;;;27.00;20.50;;;;;;;6.86;96.63;96344.86;107788;1269;71267;-75
2022/11/16 11:35:01;;;;;;;31.90;21.60;;;;;;;6.91;95.95;96345.04;107788;1265;69119;-73
2022/11/16 11:37:36;;;;;;;28.20;20.60;;;;;;;6.93;94.31;96349.95;107653;1269;69777;-73
2022/11/16 11:40:27;;;;;;;26.80;19.80;;;;;;;6.91;93.78;96345.64;107654;1270;59728;-74
2022/11/16 11:43:02;;;;;;;27.10;18.90;;;;;;;6.99;93.28;96342.58;107641;1269;59699;-74
2022/11/16 11:45:45;;;;;;;23.20;18.60;;;;;;;7.15;92.83;96342.24;107657;1269;70595;-74
2022/11/16 11:48:24;;;;;;;26.00;21.90;;;;;;;7.36;92.17;96338.19;107654;1269;69885;-74
2022/11/16 11:51:14;;;;;;;25.40;19.00;;;;;;;7.70;91.82;96333.64;107657;1269;69922;-74
2022/11/16 11:53:52;;;;;;;26.20;18.70;;;;;;;7.91;91.13;96325.01;107744;1266;59760;-74
2022/11/16 11:56:22;;;;;;;25.50;19.10;;;;;;;8.04;90.21;96320.91;107665;1269;59689;-74
2022/11/16 11:58:52;;;;;;;25.00;17.50;;;;;;;8.26;88.74;96317.93;107680;1269;69879;-74
2022/11/16 12:01:24;;;;;;;;;;;;;;;9.29;87.61;96314.95;107692;1269;69188;-74
2022/11/16 12:04:11;;;;;;;24.40;17.80;;;;;;;10.66;84.03;96315.67;107643;1269;69278;-74
2022/11/16 12:06:59;;;;;;;22.40;16.10;;;;;;;11.29;74.37;96324.38;107683;1269;59677;-74
2022/11/16 12:09:54;;;;;;;21.90;18.80;;;;;;;11.21;76.83;96324.34;107782;1266;59749;-74
2022/11/16 12:12:42;;;;;;;21.20;16.80;;;;;;;10.80;76.22;96324.72;107603;1269;72771;-74
2022/11/16 12:15:36;;;;;;;22.00;17.30;;;;;;;10.59;78.25;96317.84;107811;1269;69157;-74
2022/11/16 12:18:22;;;;;;;22.00;18.50;;;;;;;10.10;77.94;96312.94;107652;1265;69612;-73
2022/11/16 12:21:21;;;;;;;23.80;18.80;;;;;;;9.64;78.73;96318.54;107672;1269;59753;-73
2022/11/16 12:24:32;;;;;;;20.00;16.30;;;;;;;9.05;81.25;96317.13;107662;1269;59703;-74
2022/11/16 12:27:38;;;;;;;22.80;17.90;;;;;;;8.71;82.24;96317.37;107547;1258;71241;-73
2022/11/16 12:30:26;;;;;;;28.50;20.50;;;;;;;8.47;83.71;96312.03;107736;1269;69880;-74
2022/11/16 12:33:20;;;;;;;23.40;17.80;;;;;;;8.29;84.35;96307.09;107598;1269;69311;-74